createdAt,value
2018-07-06T00:01:40.818Z,1.33
2018-07-06T00:04:27.366Z,1.53
2018-07-06T00:07:13.667Z,1.80
2018-07-06T00:09:59.966Z,1.90
2018-07-06T00:12:46.145Z,1.70
2018-07-06T00:15:32.388Z,1.60
2018-07-06T00:18:18.601Z,1.80
2018-07-06T00:21:04.844Z,1.73
2018-07-06T00:23:51.293Z,1.57
2018-07-06T00:26:37.738Z,1.50
2018-07-06T00:29:23.826Z,1.60
2018-07-06T00:32:10.011Z,1.60
2018-07-06T00:34:56.191Z,1.60
2018-07-06T00:37:42.469Z,1.83
2018-07-06T00:40:28.694Z,1.67
2018-07-06T00:43:15.105Z,1.63
2018-07-06T00:46:01.346Z,1.73
2018-07-06T00:48:47.541Z,1.77
2018-07-06T00:51:33.784Z,1.77
2018-07-06T00:54:14.153Z,1.80
2018-07-06T00:57:00.311Z,1.63
2018-07-06T00:59:46.522Z,1.60
2018-07-06T01:02:39.156Z,1.60
2018-07-06T01:05:25.226Z,1.77
2018-07-06T01:08:11.419Z,1.90
2018-07-06T01:10:57.923Z,1.87
2018-07-06T01:13:44.279Z,1.73
2018-07-06T01:16:30.390Z,1.90
2018-07-06T01:19:16.575Z,1.47
2018-07-06T01:22:02.854Z,1.80
2018-07-06T01:24:49.063Z,1.70
2018-07-06T01:27:35.283Z,1.70
2018-07-06T01:30:21.482Z,2.00
2018-07-06T01:33:07.635Z,2.03
2018-07-06T01:35:53.864Z,1.90
2018-07-06T01:38:40.121Z,2.30
2018-07-06T01:41:26.266Z,1.70
2018-07-06T01:44:12.318Z,1.80
2018-07-06T01:46:52.478Z,2.00
2018-07-06T01:49:38.566Z,1.60
2018-07-06T01:52:24.902Z,1.67
2018-07-06T01:55:11.174Z,1.70
2018-07-06T01:57:57.287Z,1.70
2018-07-06T02:00:43.508Z,1.60
2018-07-06T02:03:29.679Z,1.60
2018-07-06T02:06:15.835Z,1.80
2018-07-06T02:09:02.054Z,1.77
2018-07-06T02:11:48.378Z,1.60
2018-07-06T02:14:34.496Z,1.83
2018-07-06T02:17:20.847Z,1.70
2018-07-06T02:20:07.167Z,1.90
2018-07-06T02:22:53.215Z,1.80
2018-07-06T02:25:39.462Z,1.77
2018-07-06T02:28:25.678Z,1.70
2018-07-06T02:31:11.795Z,1.73
2018-07-06T02:33:58.003Z,1.80
2018-07-06T02:36:44.208Z,2.27
2018-07-06T02:39:30.407Z,2.20
2018-07-06T02:42:16.689Z,1.90
2018-07-06T02:45:02.862Z,1.90
2018-07-06T02:47:49.135Z,1.70
2018-07-06T02:50:35.466Z,1.83
2018-07-06T02:53:21.716Z,1.60
2018-07-06T02:56:08.080Z,1.70
2018-07-06T02:58:54.183Z,1.70
2018-07-06T03:01:40.525Z,1.57
2018-07-06T03:04:26.908Z,1.77
2018-07-06T03:07:13.265Z,1.73
2018-07-06T03:09:59.374Z,1.77
2018-07-06T03:12:45.719Z,1.80
2018-07-06T03:15:31.948Z,2.10
2018-07-06T03:18:18.188Z,1.40
2018-07-06T03:21:04.407Z,1.67
2018-07-06T03:23:44.753Z,1.70
2018-07-06T03:26:30.912Z,1.63
2018-07-06T03:29:17.392Z,1.90
2018-07-06T03:32:03.635Z,1.80
2018-07-06T03:34:49.787Z,1.83
2018-07-06T03:37:36.282Z,1.93
2018-07-06T03:40:22.359Z,1.80
2018-07-06T03:43:08.778Z,2.03
2018-07-06T03:45:55.214Z,1.70
2018-07-06T03:48:41.582Z,1.73
2018-07-06T03:51:27.867Z,1.53
2018-07-06T03:54:14.014Z,1.77
2018-07-06T03:57:00.247Z,1.80
2018-07-06T03:59:46.428Z,1.53
2018-07-06T04:02:32.502Z,1.90
2018-07-06T04:05:18.719Z,1.70
2018-07-06T04:08:05.032Z,1.50
2018-07-06T04:10:51.199Z,1.70
2018-07-06T04:13:37.563Z,1.63
2018-07-06T04:16:23.755Z,1.70
2018-07-06T04:19:11.086Z,1.73
2018-07-06T04:21:57.586Z,1.73
2018-07-06T04:24:43.923Z,1.70
2018-07-06T04:27:30.143Z,1.70
2018-07-06T04:30:16.451Z,1.70
2018-07-06T04:33:02.639Z,1.70
2018-07-06T04:35:48.765Z,1.70
2018-07-06T04:38:34.943Z,1.80
2018-07-06T04:41:15.154Z,1.70
2018-07-06T04:44:01.374Z,1.80
2018-07-06T04:46:47.529Z,1.67
2018-07-06T04:49:33.730Z,1.60
2018-07-06T04:52:19.974Z,1.70
2018-07-06T04:55:06.183Z,1.50
2018-07-06T04:57:52.354Z,1.80
2018-07-06T05:00:38.639Z,1.90
2018-07-06T05:03:24.988Z,1.90
2018-07-06T05:06:11.170Z,1.80
2018-07-06T05:08:57.365Z,1.80
2018-07-06T05:11:43.698Z,1.63
2018-07-06T05:14:23.926Z,1.70
2018-07-06T05:17:10.158Z,1.83
2018-07-06T05:19:56.302Z,1.80
2018-07-06T05:22:42.730Z,1.70
2018-07-06T05:25:29.439Z,1.80
2018-07-06T05:28:15.566Z,1.80
2018-07-06T05:31:01.775Z,1.60
2018-07-06T05:33:47.822Z,1.77
2018-07-06T05:36:27.985Z,1.70
2018-07-06T05:39:14.243Z,1.80
2018-07-06T05:42:00.362Z,1.60
2018-07-06T05:44:46.442Z,1.87
2018-07-06T05:47:32.566Z,1.90
2018-07-06T05:50:18.693Z,8.30
2018-07-06T05:53:05.054Z,8.60
2018-07-06T05:55:51.332Z,8.77
2018-07-06T05:58:37.606Z,8.37
2018-07-06T06:01:23.890Z,10.67
2018-07-06T06:04:10.339Z,10.50
2018-07-06T06:06:50.620Z,9.43
2018-07-06T06:09:25.390Z,8.30
2018-07-06T06:11:54.057Z,6.57
2018-07-06T06:14:22.784Z,7.13
2018-07-06T06:16:51.654Z,6.67
2018-07-06T06:19:20.509Z,5.87
2018-07-06T06:21:49.383Z,7.13
2018-07-06T06:24:18.237Z,6.67
2018-07-06T06:26:47.091Z,10.77
2018-07-06T06:29:16.008Z,7.40
2018-07-06T06:31:44.893Z,5.30
2018-07-06T06:34:44.443Z,7.03
2018-07-06T06:37:13.818Z,11.03
2018-07-06T06:39:42.679Z,5.90
2018-07-06T06:42:11.560Z,5.93
2018-07-06T06:44:40.489Z,6.03
2018-07-06T06:47:09.579Z,12.23
2018-07-06T06:49:38.471Z,12.67
2018-07-06T06:52:07.591Z,56.23
2018-07-06T06:54:36.493Z,78.27
2018-07-06T06:57:05.394Z,71.73
2018-07-06T06:59:34.285Z,43.90
2018-07-06T07:02:03.167Z,40.07
2018-07-06T07:04:32.030Z,27.63
2018-07-06T07:07:00.928Z,23.30
2018-07-06T07:09:29.923Z,18.47
2018-07-06T07:11:58.769Z,12.00
2018-07-06T07:14:27.413Z,11.40
2018-07-06T07:16:56.164Z,25.47
2018-07-06T07:19:25.036Z,32.60
2018-07-06T07:21:53.934Z,55.47
2018-07-06T07:24:22.807Z,57.97
2018-07-06T07:26:51.718Z,33.90
2018-07-06T07:29:20.681Z,28.07
2018-07-06T07:31:49.558Z,18.00
2018-07-06T07:34:18.437Z,10.53
2018-07-06T07:36:47.290Z,11.60
2018-07-06T07:39:16.191Z,11.27
2018-07-06T07:41:45.023Z,12.43
2018-07-06T07:44:13.903Z,16.00
2018-07-06T07:46:42.763Z,13.73
2018-07-06T07:49:11.646Z,46.73
2018-07-06T07:51:54.986Z,30.30
2018-07-06T07:54:31.490Z,16.47
2018-07-06T07:57:01.145Z,12.93
2018-07-06T07:59:32.072Z,11.90
2018-07-06T08:02:01.612Z,12.40
2018-07-06T08:04:30.512Z,9.93
2018-07-06T08:06:59.366Z,10.07
2018-07-06T08:09:28.606Z,12.77
2018-07-06T08:11:58.785Z,18.07
2018-07-06T08:14:27.868Z,20.67
2018-07-06T08:16:56.830Z,29.87
2018-07-06T08:19:26.638Z,29.50
2018-07-06T08:21:55.502Z,22.27
2018-07-06T08:24:24.344Z,26.00
2018-07-06T08:26:53.222Z,24.00
2018-07-06T08:29:22.147Z,33.47
2018-07-06T08:31:51.046Z,68.07
2018-07-06T08:34:34.753Z,97.33
2018-07-06T08:37:36.884Z,76.27
2018-07-06T08:40:05.842Z,119.53
2018-07-06T08:42:35.667Z,82.07
2018-07-06T08:45:04.874Z,77.63
2018-07-06T08:47:33.895Z,67.23
2018-07-06T08:50:03.386Z,64.47
2018-07-06T08:52:32.463Z,36.67
2018-07-06T08:55:01.347Z,34.20
2018-07-06T08:57:31.362Z,26.80
2018-07-06T09:00:00.258Z,29.40
2018-07-06T09:02:29.341Z,21.23
2018-07-06T09:04:59.170Z,18.67
2018-07-06T09:07:28.085Z,19.97
2018-07-06T09:09:57.678Z,14.73
2018-07-06T09:12:26.539Z,12.03
2018-07-06T09:14:55.854Z,13.73
2018-07-06T09:17:24.839Z,143.27
2018-07-06T09:19:55.568Z,108.13
2018-07-06T09:22:24.446Z,74.10
2018-07-06T09:24:55.623Z,39.37
2018-07-06T09:27:24.482Z,33.03
2018-07-06T09:29:53.474Z,24.73
2018-07-06T09:32:22.258Z,21.13
2018-07-06T09:34:51.138Z,16.20
2018-07-06T09:37:20.003Z,14.43
2018-07-06T09:39:49.740Z,14.00
2018-07-06T09:42:18.962Z,11.60
2018-07-06T09:44:47.859Z,14.47
2018-07-06T09:47:17.094Z,15.40
2018-07-06T09:49:45.971Z,10.60
2018-07-06T09:52:14.973Z,9.40
2018-07-06T09:54:43.820Z,7.80
2018-07-06T09:57:12.693Z,7.70
2018-07-06T09:59:41.611Z,33.67
2018-07-06T10:02:12.158Z,52.43
2018-07-06T10:04:48.532Z,64.80
2018-07-06T10:07:17.699Z,34.77
2018-07-06T10:09:46.628Z,28.57
2018-07-06T10:12:15.449Z,16.03
2018-07-06T10:14:48.509Z,15.87
2018-07-06T10:17:17.417Z,9.70
2018-07-06T10:19:46.311Z,9.80
2018-07-06T10:22:14.939Z,15.10
2018-07-06T10:24:43.658Z,21.87
2018-07-06T10:27:12.481Z,22.00
2018-07-06T10:29:50.501Z,30.53
2018-07-06T10:32:21.950Z,62.33
2018-07-06T10:34:50.830Z,76.87
2018-07-06T10:37:21.191Z,64.20
2018-07-06T10:39:50.664Z,39.23
2018-07-06T10:42:21.392Z,26.67
2018-07-06T10:44:51.746Z,18.90
2018-07-06T10:47:20.602Z,19.60
2018-07-06T10:49:49.654Z,45.83
2018-07-06T10:52:18.502Z,88.83
2018-07-06T10:54:47.822Z,52.10
2018-07-06T10:57:16.675Z,20.20
2018-07-06T10:59:45.563Z,12.30
2018-07-06T11:02:15.303Z,10.87
2018-07-06T11:04:44.149Z,9.13
2018-07-06T11:07:14.050Z,12.60
2018-07-06T11:09:43.000Z,10.20
2018-07-06T11:12:11.885Z,20.60
2018-07-06T11:14:40.721Z,26.60
2018-07-06T11:17:09.561Z,22.70
2018-07-06T11:19:38.409Z,12.77
2018-07-06T11:22:07.305Z,8.57
2018-07-06T11:24:36.266Z,5.13
2018-07-06T11:27:05.083Z,4.90
2018-07-06T11:29:34.009Z,7.07
2018-07-06T11:32:06.942Z,5.67
2018-07-06T11:34:36.027Z,3.70
2018-07-06T11:37:06.916Z,6.93
2018-07-06T11:39:39.549Z,5.37
2018-07-06T11:42:09.018Z,6.23
2018-07-06T11:44:37.875Z,6.20
2018-07-06T11:47:07.273Z,5.90
2018-07-06T11:49:36.338Z,5.40
2018-07-06T11:52:05.230Z,6.60
2018-07-06T11:54:34.082Z,8.33
2018-07-06T11:57:02.958Z,5.67
2018-07-06T11:59:31.816Z,4.33
2018-07-06T12:02:00.686Z,5.90
2018-07-06T12:04:29.582Z,5.97
2018-07-06T12:06:58.433Z,6.97
2018-07-06T12:09:27.307Z,5.17
2018-07-06T12:11:56.171Z,7.87
2018-07-06T12:14:25.020Z,6.53
2018-07-06T12:16:53.892Z,8.27
2018-07-06T12:19:22.762Z,5.00
2018-07-06T12:21:51.638Z,4.67
2018-07-06T12:24:20.603Z,8.50
2018-07-06T12:26:49.462Z,6.20
2018-07-06T12:29:18.318Z,5.87
2018-07-06T12:31:47.182Z,4.33
2018-07-06T12:34:16.058Z,5.07
2018-07-06T12:36:44.962Z,4.27
2018-07-06T12:39:13.733Z,3.60
2018-07-06T12:41:42.625Z,5.53
2018-07-06T12:44:11.557Z,4.95
2018-07-06T12:46:41.698Z,6.00
2018-07-06T12:49:10.568Z,4.83
2018-07-06T12:51:39.708Z,5.37
2018-07-06T12:54:08.538Z,6.30
2018-07-06T12:56:37.401Z,4.80
2018-07-06T12:59:06.294Z,7.00
2018-07-06T13:01:35.120Z,4.37
2018-07-06T13:04:03.990Z,5.23
2018-07-06T13:06:32.843Z,5.40
2018-07-06T13:09:01.707Z,5.37
2018-07-06T13:11:30.563Z,6.33
2018-07-06T13:13:59.427Z,5.97
2018-07-06T13:16:28.279Z,4.80
2018-07-06T13:18:57.271Z,9.73
2018-07-06T13:21:26.179Z,6.57
2018-07-06T13:23:55.055Z,5.10
2018-07-06T13:26:23.906Z,4.77
2018-07-06T13:28:52.779Z,3.77
2018-07-06T13:31:21.488Z,5.77
2018-07-06T13:33:50.289Z,4.97
2018-07-06T13:36:19.119Z,6.57
2018-07-06T13:38:47.974Z,3.27
2018-07-06T13:41:16.841Z,4.07
2018-07-06T13:43:45.716Z,6.63
2018-07-06T13:46:14.591Z,7.83
2018-07-06T13:48:43.468Z,25.50
2018-07-06T13:51:12.912Z,14.78
2018-07-06T13:53:41.869Z,9.47
2018-07-06T13:56:10.729Z,8.15
2018-07-06T13:58:39.604Z,5.42
2018-07-06T14:01:08.435Z,4.45
2018-07-06T14:03:37.507Z,6.00
2018-07-06T14:06:06.334Z,5.10
2018-07-06T14:08:35.475Z,4.10
2018-07-06T14:11:04.730Z,6.07
2018-07-06T14:13:33.387Z,6.67
2018-07-06T14:16:02.279Z,6.30
2018-07-06T14:18:31.347Z,5.37
2018-07-06T14:21:00.202Z,5.57
2018-07-06T14:23:29.074Z,5.97
2018-07-06T14:25:57.991Z,2.93
2018-07-06T14:28:26.715Z,5.20
2018-07-06T14:30:55.582Z,6.37
2018-07-06T14:33:26.028Z,5.23
2018-07-06T14:35:54.890Z,5.90
2018-07-06T14:38:23.757Z,4.47
2018-07-06T14:40:52.836Z,3.20
2018-07-06T14:43:21.652Z,5.87
2018-07-06T14:45:50.491Z,5.33
2018-07-06T14:48:19.330Z,5.15
2018-07-06T14:50:48.226Z,8.03
2018-07-06T14:53:17.123Z,7.15
2018-07-06T14:55:45.978Z,4.27
2018-07-06T14:58:14.637Z,5.90
2018-07-06T15:00:43.374Z,6.45
2018-07-06T15:03:12.394Z,4.67
2018-07-06T15:05:41.271Z,4.77
2018-07-06T15:08:10.127Z,5.50
2018-07-06T15:10:39.158Z,2.17
2018-07-06T15:13:09.416Z,4.50
2018-07-06T15:15:38.819Z,6.77
2018-07-06T15:18:07.977Z,5.30
2018-07-06T15:20:38.390Z,3.83
2018-07-06T15:23:07.140Z,7.57
2018-07-06T15:25:36.338Z,11.90
2018-07-06T15:28:05.204Z,14.63
2018-07-06T15:30:33.978Z,26.30
2018-07-06T15:33:03.245Z,30.00
2018-07-06T15:35:33.193Z,20.67
2018-07-06T15:38:02.305Z,20.57
2018-07-06T15:40:31.421Z,15.23
2018-07-06T15:43:00.387Z,9.73
2018-07-06T15:45:29.308Z,11.97
2018-07-06T15:47:58.131Z,9.30
2018-07-06T15:50:26.990Z,10.48
2018-07-06T15:52:55.870Z,9.03
2018-07-06T15:55:24.505Z,25.70
2018-07-06T15:57:54.045Z,19.93
2018-07-06T16:00:22.934Z,29.00
2018-07-06T16:02:51.799Z,36.88
2018-07-06T16:05:20.683Z,30.02
2018-07-06T16:07:49.538Z,29.65
2018-07-06T16:10:18.418Z,29.10
2018-07-06T16:12:47.298Z,27.87
2018-07-06T16:15:16.179Z,23.73
2018-07-06T16:17:45.030Z,18.13
2018-07-06T16:20:13.905Z,15.33
2018-07-06T16:22:42.758Z,18.47
2018-07-06T16:25:12.457Z,18.53
2018-07-06T16:27:41.186Z,26.13
2018-07-06T16:30:09.935Z,21.87
2018-07-06T16:32:42.002Z,23.53
2018-07-06T16:35:10.881Z,17.93
2018-07-06T16:37:39.734Z,21.40
2018-07-06T16:40:08.615Z,17.57
2018-07-06T16:42:37.477Z,20.60
2018-07-06T16:45:06.375Z,22.80
2018-07-06T16:47:35.230Z,20.60
2018-07-06T16:50:04.120Z,20.13
2018-07-06T16:52:33.105Z,20.27
2018-07-06T16:55:01.955Z,17.60
2018-07-06T16:57:31.806Z,14.73
2018-07-06T17:00:00.695Z,14.20
2018-07-06T17:02:29.598Z,17.17
2018-07-06T17:04:58.573Z,16.37
2018-07-06T17:07:27.418Z,14.10
2018-07-06T17:09:56.311Z,17.27
2018-07-06T17:12:25.170Z,13.93
2018-07-06T17:14:53.905Z,14.77
2018-07-06T17:17:22.630Z,15.33
2018-07-06T17:19:51.731Z,16.30
2018-07-06T17:22:20.558Z,15.43
2018-07-06T17:24:49.435Z,17.30
2018-07-06T17:27:18.307Z,14.53
2018-07-06T17:29:47.176Z,13.20
2018-07-06T17:32:16.154Z,14.20
2018-07-06T17:34:45.074Z,14.00
2018-07-06T17:37:13.947Z,12.97
2018-07-06T17:39:43.214Z,13.90
2018-07-06T17:42:12.087Z,13.50
2018-07-06T17:44:40.939Z,9.47
2018-07-06T17:47:09.816Z,11.67
2018-07-06T17:49:38.675Z,13.62
2018-07-06T17:52:07.567Z,14.80
2018-07-06T17:54:36.426Z,13.30
2018-07-06T17:57:06.015Z,13.40
2018-07-06T17:59:34.870Z,10.50
2018-07-06T18:02:03.744Z,9.93
2018-07-06T18:04:32.929Z,12.40
2018-07-06T18:07:01.804Z,12.07
2018-07-06T18:09:30.687Z,11.73
2018-07-06T18:11:59.594Z,12.60
2018-07-06T18:14:28.647Z,12.00
2018-07-06T18:16:57.522Z,12.93
2018-07-06T18:19:26.382Z,10.25
2018-07-06T18:21:55.263Z,10.78
2018-07-06T18:24:24.119Z,8.80
2018-07-06T18:26:52.858Z,9.98
2018-07-06T18:29:21.590Z,8.65
2018-07-06T18:31:50.494Z,8.13
2018-07-06T18:34:19.351Z,10.03
2018-07-06T18:36:48.226Z,12.35
2018-07-06T18:39:17.082Z,9.23
2018-07-06T18:41:45.959Z,11.05
2018-07-06T18:44:14.813Z,11.95
2018-07-06T18:46:43.694Z,10.98
2018-07-06T18:49:12.658Z,9.13
2018-07-06T18:51:41.534Z,9.38
2018-07-06T18:54:10.406Z,8.77
2018-07-06T18:56:39.326Z,9.05
2018-07-06T18:59:08.184Z,9.77
2018-07-06T19:01:36.929Z,10.93
2018-07-06T19:04:06.003Z,9.30
2018-07-06T19:06:34.874Z,8.13
2018-07-06T19:09:04.649Z,8.80
2018-07-06T19:11:33.706Z,8.37
2018-07-06T19:14:02.782Z,7.33
2018-07-06T19:16:31.655Z,8.63
2018-07-06T19:19:00.508Z,9.20
2018-07-06T19:21:29.379Z,8.73
2018-07-06T19:23:58.234Z,7.53
2018-07-06T19:26:27.109Z,9.13
2018-07-06T19:28:55.963Z,8.73
2018-07-06T19:31:24.841Z,10.37
2018-07-06T19:33:53.698Z,8.57
2018-07-06T19:36:22.566Z,9.67
2018-07-06T19:38:51.423Z,6.87
2018-07-06T19:41:20.302Z,8.27
2018-07-06T19:43:49.307Z,7.07
2018-07-06T19:46:18.135Z,7.97
2018-07-06T19:48:47.006Z,6.33
2018-07-06T19:51:15.861Z,8.70
2018-07-06T19:53:44.753Z,8.63
2018-07-06T19:56:13.610Z,10.53
2018-07-06T19:58:42.482Z,8.83
2018-07-06T20:01:11.336Z,8.50
2018-07-06T20:03:40.207Z,6.77
2018-07-06T20:06:09.086Z,6.67
2018-07-06T20:08:38.286Z,8.33
2018-07-06T20:11:07.147Z,8.93
2018-07-06T20:13:36.182Z,9.10
2018-07-06T20:16:05.142Z,5.47
2018-07-06T20:18:34.011Z,7.03
2018-07-06T20:21:02.866Z,8.77
2018-07-06T20:23:31.738Z,6.13
2018-07-06T20:26:00.591Z,6.83
2018-07-06T20:28:29.460Z,6.90
2018-07-06T20:30:58.185Z,7.80
2018-07-06T20:33:27.046Z,6.37
2018-07-06T20:35:55.914Z,7.73
2018-07-06T20:38:24.788Z,7.87
2018-07-06T20:40:53.656Z,8.43
2018-07-06T20:43:22.526Z,6.53
2018-07-06T20:45:51.370Z,5.37
2018-07-06T20:48:20.248Z,6.53
2018-07-06T20:50:49.143Z,5.17
2018-07-06T20:53:18.003Z,6.93
2018-07-06T20:55:46.875Z,5.20
2018-07-06T20:58:15.750Z,7.17
2018-07-06T21:00:44.714Z,7.03
2018-07-06T21:03:13.578Z,6.30
2018-07-06T21:05:42.435Z,7.17
2018-07-06T21:08:11.326Z,5.67
2018-07-06T21:10:40.188Z,5.67
2018-07-06T21:13:09.222Z,5.57
2018-07-06T21:15:38.070Z,6.13
2018-07-06T21:18:06.947Z,4.83
2018-07-06T21:20:35.887Z,5.60
2018-07-06T21:23:04.808Z,7.23
2018-07-06T21:25:33.662Z,5.47
2018-07-06T21:28:02.535Z,7.23
2018-07-06T21:30:31.398Z,6.13
2018-07-06T21:33:00.274Z,6.83
2018-07-06T21:35:29.127Z,6.87
2018-07-06T21:37:57.994Z,6.13
2018-07-06T21:40:26.848Z,4.90
2018-07-06T21:42:55.726Z,5.77
2018-07-06T21:45:24.591Z,6.17
2018-07-06T21:47:53.479Z,5.50
2018-07-06T21:50:22.330Z,5.07
2018-07-06T21:52:51.227Z,4.33
2018-07-06T21:55:19.979Z,5.37
2018-07-06T21:57:48.702Z,5.77
2018-07-06T22:00:23.537Z,4.83
2018-07-06T22:02:52.419Z,5.90
2018-07-06T22:05:21.061Z,4.57
2018-07-06T22:07:49.787Z,7.10
2018-07-06T22:10:18.446Z,6.97
2018-07-06T22:12:47.175Z,5.03
2018-07-06T22:15:15.833Z,5.33
2018-07-06T22:17:44.576Z,5.77
2018-07-06T22:20:13.447Z,4.67
2018-07-06T22:22:42.372Z,4.40
2018-07-06T22:25:11.238Z,5.07
2018-07-06T22:27:40.090Z,5.77
2018-07-06T22:30:08.959Z,4.37
2018-07-06T22:32:37.810Z,5.30
2018-07-06T22:35:06.683Z,4.23
2018-07-06T22:37:35.538Z,5.27
2018-07-06T22:40:04.417Z,3.73
2018-07-06T22:42:33.270Z,5.30
2018-07-06T22:45:02.138Z,4.40
2018-07-06T22:47:30.991Z,4.00
2018-07-06T22:49:59.861Z,5.30
2018-07-06T22:52:28.732Z,3.60
2018-07-06T22:54:57.608Z,4.60
2018-07-06T22:57:26.462Z,5.20
2018-07-06T22:59:55.330Z,4.13
2018-07-06T23:02:24.187Z,4.17
2018-07-06T23:04:53.055Z,5.37
2018-07-06T23:07:21.902Z,4.73
2018-07-06T23:09:50.875Z,4.13
2018-07-06T23:12:19.726Z,4.60
2018-07-06T23:14:48.602Z,4.40
2018-07-06T23:17:17.445Z,4.83
2018-07-06T23:19:46.197Z,3.50
2018-07-06T23:22:23.671Z,3.63
2018-07-06T23:24:52.543Z,4.17
2018-07-06T23:27:21.403Z,4.30
2018-07-06T23:29:50.278Z,4.30
2018-07-06T23:32:19.192Z,4.00
2018-07-06T23:34:48.006Z,5.00
2018-07-06T23:37:16.858Z,5.37
2018-07-06T23:39:45.734Z,3.40
2018-07-06T23:42:14.591Z,3.60
2018-07-06T23:44:43.244Z,3.07
2018-07-06T23:47:11.976Z,3.20
2018-07-06T23:49:40.831Z,3.87
2018-07-06T23:52:09.574Z,3.47
2018-07-06T23:54:38.516Z,3.27
2018-07-06T23:57:07.309Z,4.10
2018-07-06T23:59:36.178Z,3.63
